Time;durP1;ratioP1;P1;durP2;ratioP2;P2;SDS_P1;SDS_P2;PMS_P1;PMS_P2;Temp;Humidity;BMP_temperature;BMP_pressure;BME280_temperature;BME280_humidity;BME280_pressure;Samples;Min_cycle;Max_cycle;Signal;HPM_P1;HPM_P2
2024/01/02 00:02:24;;;;;;;7.60;6.50;;;;;;;-0.25;100.00;97516.59;1224324;75;2917308;-63
2024/01/02 00:04:56;;;;;;;6.90;5.65;;;;;;;-0.26;100.00;97507.78;1223274;75;2921861;-63
2024/01/02 00:07:29;;;;;;;7.30;5.70;;;;;;;-0.21;100.00;97501.16;1223581;75;2919176;-64
2024/01/02 00:10:02;;;;;;;8.35;6.60;;;;;;;-0.10;100.00;97496.38;1223763;75;2919538;-64
2024/01/02 00:12:35;;;;;;;7.10;6.05;;;;;;;-0.22;100.00;97489.66;1224367;75;2914238;-63
2024/01/02 00:15:12;;;;;;;5.90;5.15;;;;;;;0.01;100.00;97493.53;1223777;75;2921526;-63
2024/01/02 00:17:44;;;;;;;8.15;6.80;;;;;;;-0.34;100.00;97484.06;1224104;75;2923318;-63
2024/01/02 00:20:17;;;;;;;9.25;7.45;;;;;;;-0.26;100.00;97493.56;1223717;67;2924916;-66
2024/01/02 00:22:50;;;;;;;10.15;8.45;;;;;;;-0.49;100.00;97488.88;1223179;75;2925563;-65
2024/01/02 00:25:23;;;;;;;9.55;8.55;;;;;;;-0.28;100.00;97502.03;1224793;75;2913119;-65
2024/01/02 00:27:56;;;;;;;10.85;8.70;;;;;;;-0.33;100.00;97493.66;1224322;75;2918867;-63
2024/01/02 00:30:33;;;;;;;10.00;8.55;;;;;;;-0.41;100.00;97489.53;1224037;75;2919045;-65
2024/01/02 00:33:07;;;;;;;10.80;8.15;;;;;;;-0.49;100.00;97486.94;1223963;75;2923749;-64
2024/01/02 00:35:40;;;;;;;9.20;7.40;;;;;;;-0.19;100.00;97471.16;1224322;75;2926686;-66
2024/01/02 00:38:13;;;;;;;7.05;6.35;;;;;;;-0.08;100.00;97469.81;1224458;75;2919941;-64
2024/01/02 00:40:46;;;;;;;6.75;5.85;;;;;;;0.00;100.00;97478.56;1224413;75;2878123;-64
2024/01/02 00:43:19;;;;;;;6.00;4.70;;;;;;;0.01;100.00;97472.00;1224166;75;2922123;-63
2024/01/02 00:45:55;;;;;;;5.60;5.00;;;;;;;-0.13;100.00;97486.44;1224408;75;2918076;-64
2024/01/02 00:48:28;;;;;;;8.35;5.80;;;;;;;-0.50;100.00;97480.06;1223046;75;2919708;-65
2024/01/02 00:51:03;;;;;;;7.50;6.50;;;;;;;-0.40;100.00;97477.63;1223914;75;2924329;-65
2024/01/02 00:53:36;;;;;;;5.00;4.50;;;;;;;-0.23;100.00;97482.75;1224101;75;2921927;-62
2024/01/02 00:56:09;;;;;;;6.95;6.00;;;;;;;-0.63;100.00;97478.31;1224051;75;2918584;-65
2024/01/02 00:58:42;;;;;;;6.40;5.80;;;;;;;-0.37;100.00;97474.13;1224052;75;2923911;-64
2024/01/02 01:01:17;;;;;;;6.40;5.70;;;;;;;-0.58;100.00;97483.25;1224518;75;2918867;-64
2024/01/02 01:03:50;;;;;;;6.80;6.10;;;;;;;-0.58;100.00;97489.38;1223523;75;2926102;-64
2024/01/02 01:06:23;;;;;;;6.00;5.30;;;;;;;-0.38;100.00;97494.88;1223811;75;2914632;-66
2024/01/02 01:08:56;;;;;;;5.30;4.75;;;;;;;-0.27;100.00;97494.72;1224373;75;2924063;-62
2024/01/02 01:11:29;;;;;;;5.35;4.10;;;;;;;-0.41;100.00;97498.38;1223788;83;2935154;-63
2024/01/02 01:14:01;;;;;;;4.55;3.50;;;;;;;-0.33;100.00;97507.88;1223650;75;2916886;-65
2024/01/02 01:16:37;;;;;;;3.80;3.40;;;;;;;-0.41;100.00;97511.06;1223996;75;2922086;-66
2024/01/02 01:19:10;;;;;;;5.25;4.40;;;;;;;-0.70;100.00;97514.13;1223524;75;2927358;-64
2024/01/02 01:21:42;;;;;;;5.30;4.80;;;;;;;-0.95;100.00;97501.75;1223913;75;2917956;-65
2024/01/02 01:24:15;;;;;;;5.65;5.05;;;;;;;-0.76;100.00;97500.38;1223903;75;2921023;-63
2024/01/02 01:26:52;;;;;;;6.45;5.85;;;;;;;-0.92;100.00;97500.94;1223201;75;2917265;-62
2024/01/02 01:29:26;;;;;;;5.85;5.25;;;;;;;-0.76;100.00;97500.38;1223720;75;2927738;-64
2024/01/02 01:32:01;;;;;;;5.00;4.25;;;;;;;-0.76;100.00;97488.88;1224049;75;2925006;-64
2024/01/02 01:34:34;;;;;;;5.10;4.60;;;;;;;-0.91;100.00;97483.69;1224551;75;2924785;-66
2024/01/02 01:37:07;;;;;;;6.10;5.05;;;;;;;-0.97;100.00;97484.53;1223909;75;2928667;-64
2024/01/02 01:39:40;;;;;;;5.10;4.60;;;;;;;-1.08;100.00;97493.47;1223315;75;2922982;-67
2024/01/02 01:42:13;;;;;;;5.50;4.50;;;;;;;-0.94;100.00;97486.41;1223588;75;2915010;-64
2024/01/02 01:44:46;;;;;;;5.25;4.35;;;;;;;-0.93;100.00;97485.25;1224326;75;2924250;-67
2024/01/02 01:47:22;;;;;;;4.05;3.20;;;;;;;-0.95;100.00;97477.59;1222569;75;2932899;-64
2024/01/02 01:49:55;;;;;;;3.95;3.45;;;;;;;-1.09;100.00;97477.75;1223654;75;2918289;-64
2024/01/02 01:52:32;;;;;;;4.30;3.80;;;;;;;-1.08;100.00;97473.91;1224487;75;2918829;-65
2024/01/02 01:55:05;;;;;;;4.45;3.70;;;;;;;-1.22;100.00;97474.84;1223257;75;2922025;-64
2024/01/02 01:57:38;;;;;;;5.15;4.30;;;;;;;-1.20;100.00;97469.84;1222141;75;2928662;-64
2024/01/02 02:00:13;;;;;;;4.75;3.80;;;;;;;-1.26;100.00;97460.69;1222675;75;2927508;-65
2024/01/02 02:02:48;;;;;;;4.15;3.30;;;;;;;-1.27;100.00;97458.38;1223000;75;2930347;-63
2024/01/02 02:05:23;;;;;;;4.45;4.00;;;;;;;-1.26;100.00;97457.25;1222802;75;2936008;-62
2024/01/02 02:07:58;;;;;;;6.25;5.40;;;;;;;-1.61;100.00;97456.44;1222322;75;2935592;-63
2024/01/02 02:10:32;;;;;;;9.50;7.90;;;;;;;-1.74;100.00;97454.28;1222848;75;2922968;-65
2024/01/02 02:13:05;;;;;;;8.65;7.35;;;;;;;-1.55;100.00;97461.00;1223640;75;2918244;-62
2024/01/02 02:15:40;;;;;;;8.20;6.60;;;;;;;-1.51;100.00;97466.34;1223165;75;2919070;-64
2024/01/02 02:18:16;;;;;;;6.30;5.55;;;;;;;-1.47;100.00;97466.28;1223416;75;2922811;-64
2024/01/02 02:20:49;;;;;;;5.60;4.80;;;;;;;-1.47;100.00;97458.97;1223454;75;2927019;-65
2024/01/02 02:23:25;;;;;;;5.20;4.70;;;;;;;-1.52;100.00;97459.44;1222423;75;2922815;-64
2024/01/02 02:25:58;;;;;;;7.75;5.45;;;;;;;-1.63;100.00;97472.97;1223107;75;2918718;-64
2024/01/02 02:28:30;;;;;;;6.70;5.70;;;;;;;-1.83;100.00;97467.38;1223426;75;2923788;-64
2024/01/02 02:31:03;;;;;;;7.75;5.90;;;;;;;-1.60;100.00;97458.00;1222833;75;2916812;-63
2024/01/02 02:33:36;;;;;;;8.15;6.40;;;;;;;-1.66;100.00;97452.31;1222890;75;2940246;-61
2024/01/02 02:36:10;;;;;;;7.25;6.30;;;;;;;-1.57;100.00;97457.94;1223628;75;2922039;-64
2024/01/02 02:38:46;;;;;;;8.75;7.20;;;;;;;-1.76;100.00;97455.84;1224316;75;2916614;-66
2024/01/02 02:41:19;;;;;;;10.15;8.75;;;;;;;-1.94;100.00;97459.44;1222558;75;2923749;-62
2024/01/02 02:43:51;;;;;;;11.20;9.55;;;;;;;-2.10;100.00;97455.75;1223180;75;2916296;-64
2024/01/02 02:46:24;;;;;;;10.40;9.10;;;;;;;-2.09;100.00;97452.69;1223493;75;2940941;-63
2024/01/02 02:48:57;;;;;;;11.05;8.90;;;;;;;-1.98;100.00;97456.03;1222554;75;2922706;-65
2024/01/02 02:51:30;;;;;;;11.80;9.15;;;;;;;-2.13;100.00;97454.63;1222947;75;2950848;-64
2024/01/02 02:54:06;;;;;;;8.80;7.90;;;;;;;-1.83;100.00;97456.66;1222763;75;2918137;-63
2024/01/02 02:56:39;;;;;;;7.80;6.60;;;;;;;-1.82;100.00;97449.38;1223153;75;2929636;-65
2024/01/02 02:59:12;;;;;;;10.45;8.20;;;;;;;-2.01;100.00;97456.81;1223890;75;2919514;-64
2024/01/02 03:01:45;;;;;;;7.85;6.85;;;;;;;-1.88;100.00;97441.00;1223972;75;2918583;-65
2024/01/02 03:04:17;;;;;;;7.50;6.40;;;;;;;-1.88;100.00;97442.91;1222582;75;2923286;-64
2024/01/02 03:06:50;;;;;;;7.45;6.70;;;;;;;-1.93;100.00;97436.81;1223797;75;2919196;-63
2024/01/02 03:09:26;;;;;;;6.35;5.15;;;;;;;-1.85;100.00;97431.38;1202711;75;4502936;-65
2024/01/02 03:11:59;;;;;;;6.75;5.60;;;;;;;-1.94;100.00;97429.94;1223751;75;2920401;-63
2024/01/02 03:14:32;;;;;;;8.25;6.85;;;;;;;-2.13;100.00;97432.41;1223031;75;2920407;-66
2024/01/02 03:17:04;;;;;;;7.80;7.00;;;;;;;-2.13;100.00;97435.09;1223734;75;2920265;-62
2024/01/02 03:19:37;;;;;;;6.70;6.00;;;;;;;-2.12;100.00;97444.66;1223652;75;2925439;-65
2024/01/02 03:22:10;;;;;;;7.30;6.20;;;;;;;-2.07;100.00;97444.97;1223521;75;2919009;-65
2024/01/02 03:24:46;;;;;;;6.55;5.70;;;;;;;-1.94;100.00;97450.63;1223878;75;2922634;-63
2024/01/02 03:27:19;;;;;;;5.80;5.20;;;;;;;-1.95;100.00;97439.16;1222745;75;2925006;-64
2024/01/02 03:29:52;;;;;;;5.40;4.65;;;;;;;-1.94;100.00;97453.31;1223386;75;2914481;-63
2024/01/02 03:32:24;;;;;;;5.25;4.30;;;;;;;-2.03;100.00;97455.69;1223876;75;2934101;-64
2024/01/02 03:34:57;;;;;;;4.30;3.85;;;;;;;-2.00;100.00;97452.22;1223621;75;2918629;-66
2024/01/02 03:37:30;;;;;;;5.60;4.40;;;;;;;-2.00;100.00;97449.53;1223630;75;2922089;-65
2024/01/02 03:40:06;;;;;;;5.70;4.45;;;;;;;-2.02;100.00;97449.94;1224200;75;2913575;-63
2024/01/02 03:42:42;;;;;;;5.05;4.30;;;;;;;-2.01;100.00;97439.97;1223491;75;2920805;-62
2024/01/02 03:45:15;;;;;;;3.95;3.55;;;;;;;-2.05;100.00;97437.31;1223996;75;2931131;-67
2024/01/02 03:47:48;;;;;;;4.15;3.60;;;;;;;-2.06;100.00;97438.47;1223018;75;2922437;-63
2024/01/02 03:50:20;;;;;;;4.10;3.40;;;;;;;-2.08;100.00;97437.34;1223991;75;2919644;-66
2024/01/02 03:52:53;;;;;;;4.55;3.85;;;;;;;-2.11;100.00;97448.88;1224164;75;2919014;-63
2024/01/02 03:55:29;;;;;;;4.60;3.70;;;;;;;-2.08;100.00;97446.16;1223206;83;2922142;-64
2024/01/02 03:58:02;;;;;;;5.80;4.60;;;;;;;-2.31;100.00;97446.72;1219679;75;3088416;-65
2024/01/02 04:00:35;;;;;;;5.95;5.30;;;;;;;-2.22;100.00;97449.72;1223428;75;2920656;-65
2024/01/02 04:03:08;;;;;;;6.50;5.55;;;;;;;-2.18;100.00;97434.38;1223108;83;2928804;-65
2024/01/02 04:05:41;;;;;;;8.40;6.80;;;;;;;-2.27;100.00;97436.72;1223469;75;2926511;-65
2024/01/02 04:08:14;;;;;;;7.65;6.50;;;;;;;-2.20;100.00;97428.63;1222264;75;2935092;-64
2024/01/02 04:10:49;;;;;;;7.15;5.70;;;;;;;-2.15;100.00;97430.13;1223148;75;2924671;-64
2024/01/02 04:13:23;;;;;;;5.80;4.90;;;;;;;-2.17;100.00;97417.09;1223518;83;2920724;-63
2024/01/02 04:15:55;;;;;;;5.65;4.65;;;;;;;-2.22;100.00;97416.78;1224024;75;2922161;-64
2024/01/02 04:18:30;;;;;;;5.55;4.25;;;;;;;-2.13;100.00;97417.09;1223067;75;2923878;-65
2024/01/02 04:21:02;;;;;;;5.60;4.30;;;;;;;-2.17;100.00;97410.97;1223399;75;2934820;-64
2024/01/02 04:23:35;;;;;;;4.45;3.70;;;;;;;-2.17;100.00;97408.31;1224167;75;2923971;-66
2024/01/02 04:26:11;;;;;;;6.05;4.65;;;;;;;-2.23;100.00;97409.91;1223168;75;2922110;-65
2024/01/02 04:28:43;;;;;;;4.20;3.70;;;;;;;-2.21;100.00;97404.91;1223909;75;2917595;-64
2024/01/02 04:31:16;;;;;;;5.60;3.95;;;;;;;-2.19;100.00;97408.72;1222768;75;2920824;-66
2024/01/02 04:33:49;;;;;;;4.00;3.30;;;;;;;-2.19;100.00;97400.66;1223773;75;2926432;-65
2024/01/02 04:36:24;;;;;;;3.75;3.35;;;;;;;-2.20;100.00;97395.69;1223716;75;2925578;-66
2024/01/02 04:38:57;;;;;;;3.90;3.30;;;;;;;-2.22;100.00;97393.41;1222576;75;2924338;-66
2024/01/02 04:41:32;;;;;;;7.45;5.20;;;;;;;-2.13;100.00;97389.50;1223903;75;2929672;-63
2024/01/02 04:44:05;;;;;;;9.40;7.10;;;;;;;-2.24;100.00;97386.91;1223606;75;2941482;-65
2024/01/02 04:46:38;;;;;;;9.60;6.95;;;;;;;-2.20;100.00;97379.59;1223040;75;2962320;-62
2024/01/02 04:49:13;;;;;;;7.80;5.80;;;;;;;-2.20;100.00;97380.38;1223422;75;2929114;-65
2024/01/02 04:51:45;;;;;;;7.60;5.90;;;;;;;-2.24;100.00;97366.22;1223528;75;2937079;-63
2024/01/02 04:54:18;;;;;;;18.40;12.00;;;;;;;-2.21;100.00;97372.72;1223160;75;2925555;-65
2024/01/02 04:56:54;;;;;;;21.85;14.70;;;;;;;-2.18;100.00;97366.56;1222682;75;2917815;-63
2024/01/02 04:59:27;;;;;;;19.15;13.55;;;;;;;-2.33;100.00;97367.84;1222956;75;2921764;-63
2024/01/02 05:02:00;;;;;;;14.95;10.55;;;;;;;-2.23;100.00;97365.06;1223928;75;2918091;-64
2024/01/02 05:04:33;;;;;;;12.25;8.75;;;;;;;-2.22;100.00;97376.56;1223667;75;2918777;-64
2024/01/02 05:07:07;;;;;;;11.60;8.70;;;;;;;-2.21;100.00;97376.16;1222852;75;2925263;-64
2024/01/02 05:09:39;;;;;;;9.75;7.00;;;;;;;-2.11;100.00;97376.47;1222471;75;2916534;-64
2024/01/02 05:12:17;;;;;;;8.40;6.40;;;;;;;-2.15;100.00;97381.84;1224049;75;2922982;-65
2024/01/02 05:14:50;;;;;;;9.60;6.70;;;;;;;-2.23;100.00;97394.56;1222836;75;2927148;-65
2024/01/02 05:17:23;;;;;;;7.10;5.60;;;;;;;-2.11;100.00;97376.47;1222987;75;2922472;-63
2024/01/02 05:19:56;;;;;;;6.20;4.80;;;;;;;-2.21;100.00;97370.81;1222768;75;2935206;-65
2024/01/02 05:22:29;;;;;;;5.15;4.25;;;;;;;-2.10;100.00;97365.34;1221853;75;2923191;-64
2024/01/02 05:25:01;;;;;;;5.60;4.20;;;;;;;-2.10;100.00;97364.56;1223288;75;2922256;-64
2024/01/02 05:27:37;;;;;;;5.25;4.25;;;;;;;-2.11;100.00;97363.81;1222926;75;2918759;-64
2024/01/02 05:30:12;;;;;;;7.30;5.85;;;;;;;-2.18;100.00;97361.22;1223471;75;2922937;-65
2024/01/02 05:32:45;;;;;;;6.40;4.95;;;;;;;-1.99;100.00;97357.19;1224320;75;2927243;-63
2024/01/02 05:35:18;;;;;;;11.40;8.40;;;;;;;-2.09;100.00;97363.41;1222919;75;2919393;-64
2024/01/02 05:37:51;;;;;;;12.95;8.70;;;;;;;-1.98;100.00;97364.06;1224244;75;2925925;-64
2024/01/02 05:40:24;;;;;;;18.00;12.20;;;;;;;-1.97;100.00;97363.69;1224512;75;2921998;-65
2024/01/02 05:42:59;;;;;;;14.40;10.45;;;;;;;-2.08;100.00;97359.56;1223300;75;2922243;-62
2024/01/02 05:45:32;;;;;;;11.10;7.90;;;;;;;-1.97;100.00;97360.25;1223009;75;2922155;-64
2024/01/02 05:48:05;;;;;;;8.35;6.30;;;;;;;-1.91;100.00;97352.50;1222965;75;2927392;-64
2024/01/02 05:50:38;;;;;;;7.25;5.20;;;;;;;-2.12;100.00;97359.59;1222852;75;2921904;-63
2024/01/02 05:53:12;;;;;;;6.05;4.85;;;;;;;-1.88;100.00;97362.44;1223251;75;2926595;-64
2024/01/02 05:55:45;;;;;;;5.00;3.85;;;;;;;-1.83;100.00;97364.69;1223982;75;2926221;-64
2024/01/02 05:58:20;;;;;;;4.25;3.60;;;;;;;-1.86;100.00;97370.84;1223527;75;2924118;-65
2024/01/02 06:00:53;;;;;;;6.30;3.65;;;;;;;-1.87;100.00;97375.47;1224504;75;2922088;-64
2024/01/02 06:03:26;;;;;;;4.00;3.40;;;;;;;-1.90;100.00;97370.13;1224183;75;2924139;-65
2024/01/02 06:05:59;;;;;;;4.40;3.25;;;;;;;-1.77;100.00;97371.91;1222406;75;2923750;-63
2024/01/02 06:08:32;;;;;;;6.30;4.70;;;;;;;-1.77;100.00;97361.16;1222132;75;2934637;-65
2024/01/02 06:11:05;;;;;;;10.85;7.85;;;;;;;-1.72;100.00;97355.34;1224354;75;2926162;-65
2024/01/02 06:13:41;;;;;;;15.70;10.65;;;;;;;-1.80;100.00;97347.78;1223059;75;2935679;-63
2024/01/02 06:16:13;;;;;;;14.05;10.90;;;;;;;-1.75;100.00;97348.09;1223051;75;2919795;-63
2024/01/02 06:18:46;;;;;;;15.65;10.80;;;;;;;-1.73;100.00;97347.72;1222854;75;2916766;-63
2024/01/02 06:21:19;;;;;;;13.40;10.10;;;;;;;-1.73;100.00;97347.72;1222305;75;2922332;-63
2024/01/02 06:23:52;;;;;;;10.70;8.00;;;;;;;-1.74;100.00;97349.63;1223379;75;2921535;-65
2024/01/02 06:26:25;;;;;;;8.60;6.70;;;;;;;-1.68;100.00;97341.13;1223382;75;2915853;-64
2024/01/02 06:29:00;;;;;;;7.05;5.65;;;;;;;-1.72;100.00;97343.84;1223010;75;2925206;-63
2024/01/02 06:31:33;;;;;;;8.00;4.70;;;;;;;-1.68;100.00;97341.13;1223432;75;2919453;-64
2024/01/02 06:34:08;;;;;;;5.00;4.30;;;;;;;-1.76;100.00;97330.47;1221886;75;2925520;-65
2024/01/02 06:36:41;;;;;;;6.50;4.85;;;;;;;-1.70;100.00;97328.13;1223782;75;2930900;-64
2024/01/02 06:39:15;;;;;;;5.75;4.45;;;;;;;-1.63;100.00;97325.34;1224121;75;2925373;-65
2024/01/02 06:41:47;;;;;;;6.65;5.25;;;;;;;-1.80;100.00;97329.00;1224022;75;2922210;-64
2024/01/02 06:44:23;;;;;;;8.85;5.55;;;;;;;-1.81;100.00;97319.44;1223529;75;2920689;-64
2024/01/02 06:46:56;;;;;;;9.95;7.15;;;;;;;-1.85;100.00;97330.22;1223844;75;2920475;-63
2024/01/02 06:49:29;;;;;;;11.70;8.60;;;;;;;-1.85;100.00;97334.81;1223660;75;2919525;-66
2024/01/02 06:52:02;;;;;;;14.40;9.80;;;;;;;-1.67;100.00;97338.03;1224907;75;2918989;-65
2024/01/02 06:54:35;;;;;;;10.00;7.75;;;;;;;-1.46;100.00;97331.66;1224161;75;2924255;-65
2024/01/02 06:57:09;;;;;;;10.20;7.45;;;;;;;-1.48;100.00;97327.88;1222831;75;2923082;-66
2024/01/02 06:59:44;;;;;;;8.35;6.20;;;;;;;-1.53;100.00;97321.00;1220179;75;2957176;-65
2024/01/02 07:02:17;;;;;;;12.05;8.15;;;;;;;-1.60;100.00;97321.09;1223275;75;2933373;-63
2024/01/02 07:04:50;;;;;;;7.75;6.20;;;;;;;-1.40;100.00;97313.16;1223072;75;2921070;-64
2024/01/02 07:07:23;;;;;;;8.50;6.65;;;;;;;-1.46;100.00;97301.38;1223563;75;2928199;-65
2024/01/02 07:09:56;;;;;;;9.90;8.00;;;;;;;-1.41;100.00;97304.38;1224488;75;2916668;-63
2024/01/02 07:12:29;;;;;;;11.50;8.80;;;;;;;-1.39;100.00;97306.66;1223709;75;2919201;-64
2024/01/02 07:15:05;;;;;;;11.15;8.45;;;;;;;-1.24;100.00;97304.53;1223997;75;2918827;-66
2024/01/02 07:17:37;;;;;;;9.80;7.00;;;;;;;-1.23;100.00;97293.38;1223770;75;2931655;-66
2024/01/02 07:20:13;;;;;;;9.35;7.40;;;;;;;-1.34;100.00;97295.47;1224278;75;2920831;-64
2024/01/02 07:22:47;;;;;;;11.95;8.25;;;;;;;-1.34;100.00;97295.47;1224857;75;2918601;-64
2024/01/02 07:25:19;;;;;;;10.50;8.40;;;;;;;-1.47;100.00;97300.59;1223778;75;2922814;-66
2024/01/02 07:27:52;;;;;;;11.20;7.90;;;;;;;-1.32;100.00;97299.25;1224363;75;2922401;-64
2024/01/02 07:30:28;;;;;;;14.95;11.50;;;;;;;-1.45;100.00;97300.97;1224995;75;2914033;-63
2024/01/02 07:33:01;;;;;;;13.30;11.10;;;;;;;-1.26;100.00;97304.91;1223293;75;2950450;-64
2024/01/02 07:35:33;;;;;;;14.05;9.85;;;;;;;-1.17;100.00;97291.75;1224149;75;2922360;-65
2024/01/02 07:38:06;;;;;;;11.80;8.95;;;;;;;-0.93;100.00;97289.09;1222792;75;2924045;-64
2024/01/02 07:40:39;;;;;;;9.20;7.30;;;;;;;-0.76;100.00;97287.31;1222923;75;2978815;-64
2024/01/02 07:43:13;;;;;;;8.05;6.50;;;;;;;-0.56;100.00;97280.03;1224258;75;2924633;-66
2024/01/02 07:45:49;;;;;;;7.20;5.60;;;;;;;-0.37;100.00;97280.50;1223662;75;2924697;-65
2024/01/02 07:48:23;;;;;;;6.00;4.80;;;;;;;0.10;100.00;97275.00;1222752;75;2915293;-67
2024/01/02 07:50:56;;;;;;;6.00;4.55;;;;;;;1.18;100.00;97268.81;1224813;75;2916148;-65
2024/01/02 07:53:29;;;;;;;5.10;3.90;;;;;;;2.22;100.00;97263.38;1224094;75;2928942;-61
2024/01/02 07:56:01;;;;;;;4.05;3.40;;;;;;;2.82;100.00;97253.94;1224903;75;2921231;-64
2024/01/02 07:58:34;;;;;;;4.40;3.70;;;;;;;3.00;100.00;97237.91;1225634;75;2920545;-64
2024/01/02 08:01:10;;;;;;;4.10;3.70;;;;;;;2.91;100.00;97249.38;1224280;75;2930695;-66
2024/01/02 08:03:43;;;;;;;3.70;3.20;;;;;;;3.00;100.00;97237.91;1224002;75;2927602;-65
2024/01/02 08:06:16;;;;;;;4.05;3.25;;;;;;;2.98;100.00;97245.69;1224521;75;2930431;-64
2024/01/02 08:08:48;;;;;;;3.80;2.90;;;;;;;2.85;100.00;97234.88;1223873;75;2927581;-64
2024/01/02 08:11:21;;;;;;;3.20;2.60;;;;;;;2.75;100.00;97236.00;1224612;75;2923050;-64
2024/01/02 08:13:54;;;;;;;3.50;2.85;;;;;;;2.62;100.00;97232.53;1224786;75;2923128;-64
2024/01/02 08:16:29;;;;;;;4.90;2.20;;;;;;;2.61;100.00;97226.38;1224223;75;2923121;-64
2024/01/02 08:19:02;;;;;;;3.45;2.75;;;;;;;2.45;100.00;97213.72;1224154;75;2924563;-62
2024/01/02 08:21:35;;;;;;;5.85;3.70;;;;;;;1.77;100.00;97209.50;1222867;75;2922797;-64
2024/01/02 08:24:08;;;;;;;6.05;4.15;;;;;;;1.53;100.00;97211.69;1224417;75;2919461;-64
2024/01/02 08:26:41;;;;;;;8.95;5.55;;;;;;;1.20;100.00;97207.13;1224922;75;2922744;-66
2024/01/02 08:29:14;;;;;;;7.40;5.25;;;;;;;1.49;100.00;97193.66;1225306;75;2922548;-63
2024/01/02 08:31:49;;;;;;;6.35;5.00;;;;;;;2.06;100.00;97199.41;1224390;75;2925550;-63
2024/01/02 08:34:22;;;;;;;13.55;9.35;;;;;;;1.64;100.00;97206.78;1224441;75;2926628;-64
2024/01/02 08:36:55;;;;;;;12.70;8.70;;;;;;;1.72;100.00;97213.47;1224542;75;2932233;-63
2024/01/02 08:39:28;;;;;;;10.90;7.40;;;;;;;1.92;100.00;97210.63;1224317;75;2925950;-62
2024/01/02 08:42:01;;;;;;;11.75;7.55;;;;;;;1.55;100.00;97209.31;1223954;75;2935718;-64
2024/01/02 08:44:33;;;;;;;8.00;5.05;;;;;;;1.86;100.00;97212.34;1224869;75;2928886;-63
2024/01/02 08:47:10;;;;;;;7.00;5.00;;;;;;;1.86;100.00;97221.19;1224515;75;2928241;-65
2024/01/02 08:49:43;;;;;;;9.30;6.15;;;;;;;1.41;100.00;97230.06;1224747;75;2925118;-63
2024/01/02 08:52:16;;;;;;;11.60;7.75;;;;;;;1.06;100.00;97219.03;1224554;75;2922096;-65
2024/01/02 08:54:48;;;;;;;12.85;7.60;;;;;;;0.65;100.00;97227.69;1224174;75;2927504;-63
2024/01/02 08:57:21;;;;;;;18.90;17.20;;;;;;;0.94;100.00;97222.41;1224331;75;2927613;-64
2024/01/02 08:59:54;;;;;;;15.90;14.40;;;;;;;0.97;100.00;97234.25;1223367;75;2948710;-64
2024/01/02 09:02:30;;;;;;;10.80;9.65;;;;;;;0.67;100.00;97224.56;1223674;75;2929551;-65
2024/01/02 09:05:02;;;;;;;11.60;9.15;;;;;;;0.69;100.00;97220.28;1223974;75;2926875;-63
2024/01/02 09:07:35;;;;;;;12.40;10.85;;;;;;;0.57;100.00;97216.31;1223858;75;2920800;-64
2024/01/02 09:10:10;;;;;;;14.70;11.65;;;;;;;0.54;100.00;97205.63;1223208;75;2931173;-66
2024/01/02 09:12:43;;;;;;;14.55;12.15;;;;;;;0.48;100.00;97208.06;1223819;75;2923245;-65
2024/01/02 09:15:16;;;;;;;12.45;10.55;;;;;;;0.48;100.00;97201.91;1223199;75;2925386;-63
2024/01/02 09:17:51;;;;;;;12.40;9.75;;;;;;;0.76;100.00;97195.09;1222140;75;2928517;-65
2024/01/02 09:20:24;;;;;;;11.05;8.80;;;;;;;0.99;100.00;97186.09;1222155;75;2919978;-65
2024/01/02 09:22:57;;;;;;;11.15;8.60;;;;;;;0.98;100.00;97173.78;1222420;83;2929501;-64
2024/01/02 09:25:33;;;;;;;7.95;7.00;;;;;;;1.27;100.00;97180.00;1222808;67;2924210;-65
2024/01/02 09:28:07;;;;;;;10.15;7.35;;;;;;;1.06;100.00;97178.59;1223807;75;2923731;-63
2024/01/02 09:30:40;;;;;;;10.50;8.50;;;;;;;0.95;100.00;97172.69;1222748;75;2922164;-64
2024/01/02 09:33:17;;;;;;;9.55;7.50;;;;;;;1.37;100.00;97175.50;1223216;75;2920520;-63
2024/01/02 09:35:51;;;;;;;8.20;6.30;;;;;;;1.45;100.00;97179.50;1222976;75;2933426;-63
2024/01/02 09:38:24;;;;;;;15.85;12.45;;;;;;;1.05;100.00;97179.00;1223982;75;2925948;-66
2024/01/02 09:41:17;;;;;;;17.80;12.60;;;;;;;1.00;100.00;97176.81;1223282;75;2923609;-63
2024/01/02 09:44:11;;;;;;;18.70;13.70;;;;;;;0.97;100.00;97170.34;1223687;75;2934869;-65
2024/01/02 09:46:52;;;;;;;15.45;11.25;;;;;;;1.03;100.00;97170.56;1223891;75;2924673;-64
2024/01/02 09:49:38;;;;;;;10.90;9.05;;;;;;;1.41;100.00;97164.59;1222464;75;2918881;-64
2024/01/02 09:52:31;;;;;;;10.00;8.40;;;;;;;1.66;100.00;97155.81;1222952;75;2952554;-67
2024/01/02 09:55:12;;;;;;;8.20;6.95;;;;;;;1.81;100.00;97154.25;1223337;75;2923523;-65
2024/01/02 09:57:54;;;;;;;6.95;6.05;;;;;;;1.88;100.00;97156.00;1223861;75;2922343;-65
2024/01/02 10:00:41;;;;;;;6.25;5.55;;;;;;;1.95;100.00;97142.28;1222736;75;2935063;-64
2024/01/02 10:03:39;;;;;;;7.50;5.90;;;;;;;1.88;100.00;97137.84;1220352;75;2924829;-64
2024/01/02 10:06:35;;;;;;;8.00;6.40;;;;;;;1.95;100.00;97126.09;1222733;75;2927589;-65
2024/01/02 10:09:26;;;;;;;6.25;5.45;;;;;;;2.10;100.00;97113.69;1222974;75;2928789;-65
2024/01/02 10:12:10;;;;;;;9.95;8.35;;;;;;;1.51;100.00;97119.63;1222971;75;2931264;-64
2024/01/02 10:15:01;;;;;;;12.25;10.00;;;;;;;1.46;100.00;97091.25;1223511;75;2926440;-66
2024/01/02 10:17:48;;;;;;;12.70;10.35;;;;;;;1.46;100.00;97094.69;1221944;75;2922451;-64
2024/01/02 10:20:32;;;;;;;12.40;9.85;;;;;;;1.76;100.00;97091.97;1222418;75;2921223;-66
2024/01/02 10:23:32;;;;;;;13.40;10.50;;;;;;;1.75;100.00;97076.94;1219093;75;2932231;-65
2024/01/02 10:26:09;;;;;;;11.60;8.65;;;;;;;2.05;100.00;97067.56;1221673;75;2926550;-65
2024/01/02 10:28:45;;;;;;;12.40;10.45;;;;;;;1.96;100.00;97059.38;1223023;75;2928443;-64
2024/01/02 10:31:27;;;;;;;12.75;9.75;;;;;;;2.02;100.00;97071.13;1222866;75;2918488;-63
2024/01/02 10:34:08;;;;;;;12.10;10.15;;;;;;;1.96;100.00;97059.38;1223364;75;2923825;-65
2024/01/02 10:36:51;;;;;;;12.60;9.85;;;;;;;2.19;100.00;97053.63;1223714;75;2923345;-62
2024/01/02 10:39:43;;;;;;;10.70;8.70;;;;;;;2.07;100.00;97055.16;1223349;75;2921239;-68
2024/01/02 10:42:34;;;;;;;12.10;10.55;;;;;;;1.99;100.00;97043.03;1223956;75;2916278;-63
2024/01/02 10:45:23;;;;;;;12.90;10.00;;;;;;;2.32;100.00;97035.44;1222185;75;2930148;-64
2024/01/02 10:48:16;;;;;;;12.30;10.20;;;;;;;2.52;100.00;97059.50;1222783;75;2928350;-65
2024/01/02 10:51:08;;;;;;;10.25;7.95;;;;;;;2.41;100.00;97055.66;1222792;75;2924872;-65
2024/01/02 10:53:51;;;;;;;14.70;10.95;;;;;;;2.09;100.00;97044.69;1223576;75;2922363;-65
2024/01/02 10:56:39;;;;;;;17.85;13.55;;;;;;;2.01;100.00;97054.16;1223920;75;2946300;-64
2024/01/02 10:59:33;;;;;;;15.65;12.30;;;;;;;2.28;100.00;97050.25;1223633;75;2915046;-64
2024/01/02 11:02:19;;;;;;;15.50;10.55;;;;;;;2.35;100.00;97042.66;1224514;75;2921851;-64
2024/01/02 11:05:03;;;;;;;13.10;10.60;;;;;;;2.77;100.00;97030.91;1223916;75;2925677;-64
2024/01/02 11:07:44;;;;;;;11.60;9.65;;;;;;;3.24;100.00;97027.31;1223816;75;2926196;-65
2024/01/02 11:10:21;;;;;;;9.70;7.95;;;;;;;5.22;100.00;97017.50;1224291;75;2924148;-64
2024/01/02 11:13:04;;;;;;;9.05;7.60;;;;;;;7.43;97.03;97008.03;1224629;75;2935288;-65
2024/01/02 11:15:41;;;;;;;9.25;5.90;;;;;;;5.45;100.00;97014.13;1224402;75;2922032;-64
2024/01/02 11:18:17;;;;;;;10.80;8.85;;;;;;;4.60;100.00;96980.66;1225593;75;2921809;-64
2024/01/02 11:20:58;;;;;;;10.70;8.75;;;;;;;4.21;100.00;96978.38;1224960;75;2932269;-63
2024/01/02 11:23:36;;;;;;;11.35;8.40;;;;;;;4.43;100.00;96969.34;1225176;75;2930167;-64
2024/01/02 11:26:17;;;;;;;12.10;9.20;;;;;;;4.33;100.00;96962.41;1225916;75;2931554;-64
2024/01/02 11:28:56;;;;;;;13.70;10.25;;;;;;;7.22;100.00;96953.50;1225218;75;2922850;-65
2024/01/02 11:31:30;;;;;;;13.20;10.30;;;;;;;9.67;83.87;96949.16;1225560;75;2928521;-65
2024/01/02 11:34:19;;;;;;;9.70;8.00;;;;;;;8.79;79.09;96965.03;1226269;75;2919986;-62
2024/01/02 11:37:06;;;;;;;11.75;9.15;;;;;;;8.05;78.56;96957.19;1225588;75;2916713;-64
2024/01/02 11:39:58;;;;;;;11.30;8.70;;;;;;;8.07;76.38;96949.28;1224074;75;2922910;-64
2024/01/02 11:42:52;;;;;;;9.40;7.10;;;;;;;6.50;87.81;96955.69;1224886;75;2942869;-64
2024/01/02 11:45:33;;;;;;;10.00;6.70;;;;;;;6.76;91.95;96951.22;1224826;75;2919930;-64
2024/01/02 11:48:21;;;;;;;13.30;8.50;;;;;;;5.01;100.00;96940.53;1225282;75;2936364;-65